Time;durP1;ratioP1;P1;durP2;ratioP2;P2;SDS_P1;SDS_P2;PMS_P1;PMS_P2;Temp;Humidity;BMP_temperature;BMP_pressure;BME280_temperature;BME280_humidity;BME280_pressure;Samples;Min_cycle;Max_cycle;Signal;HPM_P1;HPM_P2
2020/12/22 00:00:49;;;;;;;23.20;12.82;;;1.40;99.90;;;;;;5095005;28;20206;-66
2020/12/22 00:03:15;;;;;;;25.48;16.23;;;1.50;99.90;;;;;;5094003;28;20519;-66
2020/12/22 00:05:42;;;;;;;28.00;14.25;;;1.40;99.90;;;;;;5093150;28;20198;-65
2020/12/22 00:08:12;;;;;;;27.67;14.13;;;1.40;99.90;;;;;;5093667;28;20203;-66
2020/12/22 00:10:39;;;;;;;27.20;17.17;;;1.50;99.90;;;;;;5091077;28;20227;-64
2020/12/22 00:13:05;;;;;;;22.77;12.10;;;1.50;99.90;;;;;;5094687;28;20207;-67
2020/12/22 00:15:32;;;;;;;25.35;15.88;;;1.50;99.90;;;;;;5093306;28;20669;-65
2020/12/22 00:18:06;;;;;;;28.42;14.18;;;1.60;99.90;;;;;;5089021;28;20221;-65
2020/12/22 00:20:33;;;;;;;28.25;15.27;;;1.60;99.90;;;;;;5089709;28;20397;-65
2020/12/22 00:22:59;;;;;;;13.68;11.25;;;1.60;99.90;;;;;;5097123;28;20206;-66
2020/12/22 00:25:26;;;;;;;23.70;12.35;;;1.80;99.90;;;;;;5092141;28;20234;-65
2020/12/22 00:27:52;;;;;;;26.98;13.68;;;1.80;99.90;;;;;;5090645;28;20198;-64
2020/12/22 00:30:19;;;;;;;24.38;13.70;;;1.90;99.90;;;;;;5090790;28;20223;-65
2020/12/22 00:32:46;;;;;;;24.65;14.48;;;1.90;99.90;;;;;;5094337;28;20270;-66
2020/12/22 00:35:12;;;;;;;21.17;14.43;;;1.90;99.90;;;;;;5089465;28;20225;-65
2020/12/22 00:37:39;;;;;;;21.77;12.85;;;1.90;99.90;;;;;;5087424;28;20194;-65
2020/12/22 00:40:06;;;;;;;28.08;15.20;;;1.90;99.90;;;;;;5092902;28;20206;-65
2020/12/22 00:42:32;;;;;;;30.75;14.50;;;1.80;99.90;;;;;;5090557;28;20210;-65
2020/12/22 00:44:59;;;;;;;31.52;14.57;;;1.80;99.90;;;;;;5096927;28;20580;-65
2020/12/22 00:47:26;;;;;;;25.05;15.77;;;1.80;99.90;;;;;;5087143;28;20202;-65
2020/12/22 00:49:53;;;;;;;25.30;14.93;;;2.10;99.90;;;;;;5092978;28;20225;-65
2020/12/22 00:52:19;;;;;;;20.58;12.98;;;1.80;99.90;;;;;;5093914;28;20590;-65
2020/12/22 00:54:46;;;;;;;20.40;15.55;;;1.80;99.90;;;;;;5095181;28;20213;-64
2020/12/22 00:57:15;;;;;;;14.35;10.68;;;2.00;99.90;;;;;;5096244;28;20206;-65
2020/12/22 00:59:42;;;;;;;19.80;11.18;;;2.00;99.90;;;;;;5092085;28;20240;-64
2020/12/22 01:02:09;;;;;;;19.20;10.73;;;2.10;99.90;;;;;;5088212;28;20209;-64
2020/12/22 01:04:36;;;;;;;26.17;13.73;;;2.10;99.90;;;;;;5092542;28;20203;-64
2020/12/22 01:07:04;;;;;;;17.10;10.10;;;2.20;99.90;;;;;;5089177;28;20245;-65
2020/12/22 01:09:30;;;;;;;17.25;10.68;;;2.30;99.90;;;;;;5091332;28;20237;-65
2020/12/22 01:11:57;;;;;;;14.80;9.75;;;2.30;99.90;;;;;;5089334;28;20210;-65
2020/12/22 01:14:24;;;;;;;17.30;9.23;;;2.30;99.90;;;;;;5091565;28;20210;-64
2020/12/22 01:16:53;;;;;;;21.65;11.75;;;2.50;99.90;;;;;;5091401;28;20262;-64
2020/12/22 01:19:19;;;;;;;11.20;8.75;;;2.30;99.90;;;;;;5091858;28;20389;-65
2020/12/22 01:21:50;;;;;;;19.98;12.48;;;2.30;99.90;;;;;;5098908;28;20205;-64
2020/12/22 01:24:16;;;;;;;14.65;9.15;;;2.20;99.90;;;;;;5087781;28;20213;-64
2020/12/22 01:26:43;;;;;;;11.93;9.90;;;2.30;99.90;;;;;;5087673;28;20551;-64
2020/12/22 01:29:09;;;;;;;11.32;10.13;;;2.30;99.90;;;;;;5093725;28;20227;-64
2020/12/22 01:31:36;;;;;;;19.92;11.30;;;2.40;99.90;;;;;;5093158;28;20436;-65
2020/12/22 01:34:03;;;;;;;19.60;13.32;;;2.20;99.90;;;;;;5090902;28;20210;-63
2020/12/22 01:36:32;;;;;;;22.10;12.15;;;2.00;99.90;;;;;;5086368;28;20222;-64
2020/12/22 01:38:58;;;;;;;28.02;13.07;;;2.10;99.90;;;;;;5086848;28;20211;-65
2020/12/22 01:41:30;;;;;;;18.95;11.98;;;2.20;99.90;;;;;;5091489;28;20196;-64
2020/12/22 01:44:06;;;;;;;15.73;8.40;;;2.30;99.90;;;;;;5090414;28;20214;-65
2020/12/22 01:46:39;;;;;;;18.55;12.15;;;2.30;99.90;;;;;;5087759;28;20202;-64
2020/12/22 01:49:13;;;;;;;17.55;11.05;;;2.30;99.90;;;;;;5085359;28;20226;-64
2020/12/22 01:51:45;;;;;;;21.42;10.48;;;2.30;99.90;;;;;;5092503;28;20204;-65
2020/12/22 01:54:13;;;;;;;18.02;14.32;;;2.30;99.90;;;;;;5095370;28;20211;-64
2020/12/22 01:56:40;;;;;;;19.23;12.93;;;2.20;99.90;;;;;;5090971;28;20213;-65
2020/12/22 01:59:07;;;;;;;16.60;11.93;;;2.30;99.90;;;;;;5098793;28;20501;-65
2020/12/22 02:01:35;;;;;;;23.48;14.65;;;2.30;99.90;;;;;;5092786;28;20209;-64
2020/12/22 02:04:04;;;;;;;20.48;11.65;;;2.30;99.90;;;;;;5087217;28;20211;-64
2020/12/22 02:06:31;;;;;;;17.58;10.05;;;2.30;99.90;;;;;;5091218;28;20229;-63
2020/12/22 02:08:59;;;;;;;13.82;11.70;;;2.30;99.90;;;;;;5094230;28;20234;-64
2020/12/22 02:11:29;;;;;;;28.50;15.07;;;2.40;99.90;;;;;;5091873;28;20251;-64
2020/12/22 02:13:57;;;;;;;25.33;13.20;;;2.40;99.90;;;;;;5087688;28;20309;-65
2020/12/22 02:16:25;;;;;;;15.13;11.07;;;2.30;99.90;;;;;;5097893;28;20401;-65
2020/12/22 02:18:54;;;;;;;24.10;13.05;;;2.20;99.90;;;;;;5100387;28;20289;-64
2020/12/22 02:21:21;;;;;;;20.88;13.75;;;2.30;99.90;;;;;;5095444;28;20203;-65
2020/12/22 02:23:49;;;;;;;24.42;15.20;;;2.20;99.90;;;;;;5096816;28;20209;-65
2020/12/22 02:26:16;;;;;;;23.45;14.15;;;2.30;99.90;;;;;;5089943;28;20596;-67
2020/12/22 02:28:43;;;;;;;19.63;12.30;;;2.30;99.90;;;;;;5093815;28;20202;-64
2020/12/22 02:31:09;;;;;;;19.55;12.77;;;2.30;99.90;;;;;;5088969;28;20233;-66
2020/12/22 02:33:36;;;;;;;23.00;13.10;;;2.20;99.90;;;;;;5099619;28;20741;-65
2020/12/22 02:36:08;;;;;;;25.60;14.85;;;2.20;99.90;;;;;;5098967;28;20226;-64
2020/12/22 02:38:35;;;;;;;21.92;13.70;;;2.10;99.90;;;;;;5088858;28;20208;-65
2020/12/22 02:41:02;;;;;;;27.50;15.20;;;2.50;99.90;;;;;;5095018;28;20206;-65
2020/12/22 02:43:29;;;;;;;17.08;11.07;;;2.10;99.90;;;;;;5088670;28;20310;-65
2020/12/22 02:45:56;;;;;;;20.45;13.48;;;2.10;99.90;;;;;;5086980;28;20202;-65
2020/12/22 02:48:23;;;;;;;24.55;13.65;;;2.10;99.90;;;;;;5095735;28;20278;-66
2020/12/22 02:50:49;;;;;;;20.42;13.00;;;2.10;99.90;;;;;;5091119;28;20231;-65
2020/12/22 02:53:16;;;;;;;31.80;15.52;;;2.00;99.90;;;;;;5089249;28;20427;-63
2020/12/22 02:55:44;;;;;;;18.35;13.23;;;2.10;99.90;;;;;;5100030;28;20206;-63
2020/12/22 02:58:10;;;;;;;20.67;12.65;;;2.10;99.90;;;;;;5091578;28;20202;-63
2020/12/22 03:00:41;;;;;;;21.83;10.82;;;2.10;99.90;;;;;;5088401;28;20221;-64
2020/12/22 03:03:08;;;;;;;15.43;10.15;;;2.10;99.90;;;;;;5088314;28;20214;-64
2020/12/22 03:05:35;;;;;;;17.73;11.95;;;2.10;99.90;;;;;;5085581;28;20237;-63
2020/12/22 03:08:02;;;;;;;17.63;12.23;;;2.00;99.90;;;;;;5091595;28;20229;-64
2020/12/22 03:10:29;;;;;;;25.83;14.90;;;2.00;99.90;;;;;;5091876;28;20230;-63
2020/12/22 03:12:56;;;;;;;18.27;12.00;;;2.00;99.90;;;;;;5098423;28;20214;-62
2020/12/22 03:15:22;;;;;;;21.20;10.38;;;2.10;99.90;;;;;;5094650;28;20214;-64
2020/12/22 03:17:49;;;;;;;19.25;12.07;;;2.10;99.90;;;;;;5095478;28;20219;-63
2020/12/22 03:20:16;;;;;;;18.17;13.30;;;2.10;99.90;;;;;;5093958;28;20214;-63
2020/12/22 03:22:43;;;;;;;16.92;10.98;;;2.20;99.90;;;;;;5100881;28;20416;-65
2020/12/22 03:25:13;;;;;;;21.38;11.88;;;2.20;99.90;;;;;;5093744;28;20237;-65
2020/12/22 03:27:40;;;;;;;15.25;9.25;;;2.30;99.90;;;;;;5093001;28;20202;-63
2020/12/22 03:30:11;;;;;;;21.00;11.07;;;2.40;99.90;;;;;;5087651;28;20301;-63
2020/12/22 03:32:39;;;;;;;15.38;9.48;;;2.40;99.90;;;;;;5089321;28;20211;-64
2020/12/22 03:35:06;;;;;;;16.25;9.95;;;2.40;99.90;;;;;;5079320;28;20251;-65
2020/12/22 03:37:33;;;;;;;11.45;8.32;;;2.50;99.90;;;;;;5089839;28;20232;-65
2020/12/22 03:40:00;;;;;;;13.43;9.43;;;2.50;99.90;;;;;;5089772;28;20210;-64
2020/12/22 03:42:28;;;;;;;19.65;10.77;;;2.60;99.90;;;;;;5095980;28;20208;-64
2020/12/22 03:44:54;;;;;;;18.02;8.85;;;2.50;99.90;;;;;;5095637;28;20333;-64
2020/12/22 03:47:21;;;;;;;19.98;10.95;;;2.40;99.90;;;;;;5095972;28;20227;-64
2020/12/22 03:49:48;;;;;;;16.55;9.50;;;2.50;99.90;;;;;;5091746;28;20234;-64
2020/12/22 03:52:15;;;;;;;13.52;7.95;;;2.60;99.90;;;;;;5082987;28;20211;-62
2020/12/22 03:54:42;;;;;;;9.70;6.70;;;2.70;99.90;;;;;;5093371;28;20234;-65
2020/12/22 03:57:09;;;;;;;11.30;8.70;;;2.70;99.90;;;;;;5091928;28;20273;-63
2020/12/22 03:59:36;;;;;;;18.55;9.90;;;2.70;99.90;;;;;;5091348;28;20208;-62
2020/12/22 04:02:03;;;;;;;12.55;8.93;;;2.80;99.90;;;;;;5089272;28;20210;-63
2020/12/22 04:04:31;;;;;;;15.02;9.05;;;2.80;99.90;;;;;;5092198;28;20511;-64
2020/12/22 04:06:58;;;;;;;18.15;9.43;;;2.80;99.90;;;;;;5092157;28;20211;-64
2020/12/22 04:09:25;;;;;;;11.57;7.68;;;2.70;99.90;;;;;;5089846;28;20238;-64
2020/12/22 04:11:52;;;;;;;15.65;9.77;;;2.70;99.90;;;;;;5093798;28;20521;-63
2020/12/22 04:14:19;;;;;;;13.75;9.55;;;2.70;99.90;;;;;;5085726;28;20534;-62
2020/12/22 04:16:47;;;;;;;20.02;8.73;;;2.70;99.90;;;;;;5096128;28;20212;-64
2020/12/22 04:19:15;;;;;;;20.35;8.82;;;2.70;99.90;;;;;;5097024;28;20204;-64
2020/12/22 04:21:43;;;;;;;14.02;8.43;;;2.70;99.90;;;;;;5087284;28;20215;-63
2020/12/22 04:24:10;;;;;;;11.20;7.50;;;2.70;99.90;;;;;;5090835;28;20310;-64
2020/12/22 04:26:36;;;;;;;12.82;8.65;;;2.70;99.90;;;;;;5077476;28;20325;-63
2020/12/22 04:29:03;;;;;;;20.55;7.22;;;2.70;99.90;;;;;;5088722;28;20420;-63
2020/12/22 04:31:30;;;;;;;15.75;9.15;;;2.70;99.90;;;;;;5090105;28;20391;-63
2020/12/22 04:33:57;;;;;;;12.57;8.50;;;2.80;99.90;;;;;;5088449;28;20662;-63
2020/12/22 04:36:25;;;;;;;11.43;5.65;;;2.80;99.90;;;;;;5094408;28;20222;-63
2020/12/22 04:38:53;;;;;;;10.90;6.53;;;2.80;99.90;;;;;;5088410;28;20468;-64
2020/12/22 04:41:20;;;;;;;8.55;6.50;;;2.80;99.90;;;;;;5093838;28;20397;-63
2020/12/22 04:43:48;;;;;;;10.95;6.75;;;2.80;99.90;;;;;;5090640;28;20194;-63
2020/12/22 04:46:22;;;;;;;11.80;7.47;;;2.80;99.90;;;;;;5094633;28;20216;-63
2020/12/22 04:48:56;;;;;;;17.15;10.02;;;2.70;99.90;;;;;;5093801;28;20204;-62
2020/12/22 04:51:23;;;;;;;14.55;7.20;;;2.80;99.90;;;;;;5088701;28;20225;-62
2020/12/22 04:54:07;;;;;;;11.27;7.85;;;2.80;99.90;;;;;;5094555;28;20265;-63
2020/12/22 04:56:36;;;;;;;9.65;6.90;;;2.80;99.90;;;;;;5097065;28;20229;-64
2020/12/22 04:59:03;;;;;;;16.45;9.38;;;2.80;99.90;;;;;;5094603;28;20386;-64
2020/12/22 05:01:32;;;;;;;11.65;6.78;;;2.80;99.90;;;;;;5096938;28;20208;-63
2020/12/22 05:03:59;;;;;;;9.93;8.02;;;2.80;99.90;;;;;;5095729;28;20219;-64
2020/12/22 05:06:25;;;;;;;11.10;8.10;;;2.90;99.90;;;;;;5107282;28;20205;-63
2020/12/22 05:08:52;;;;;;;11.70;7.43;;;3.00;99.90;;;;;;5096767;28;20204;-64
2020/12/22 05:11:18;;;;;;;7.22;6.00;;;2.90;99.90;;;;;;5099853;28;20572;-65
2020/12/22 05:13:48;;;;;;;12.57;7.57;;;3.00;99.90;;;;;;5090731;28;20219;-63
2020/12/22 05:16:15;;;;;;;13.30;7.70;;;3.10;99.90;;;;;;5092341;28;20270;-62
2020/12/22 05:18:42;;;;;;;13.10;7.68;;;3.10;99.90;;;;;;5098034;28;20196;-63
2020/12/22 05:21:21;;;;;;;12.90;6.88;;;3.20;99.90;;;;;;5096193;28;20195;-64
2020/12/22 05:23:50;;;;;;;14.27;6.80;;;3.10;99.90;;;;;;5096635;28;20196;-63
2020/12/22 05:26:21;;;;;;;11.30;7.70;;;3.20;99.90;;;;;;5099787;28;20236;-63
2020/12/22 05:28:49;;;;;;;13.50;8.15;;;3.30;99.90;;;;;;5095667;28;20205;-63
2020/12/22 05:31:16;;;;;;;8.27;5.65;;;3.40;99.90;;;;;;5099335;28;20256;-63
2020/12/22 05:33:45;;;;;;;12.60;6.95;;;3.70;99.90;;;;;;5096444;28;20213;-63
2020/12/22 05:36:12;;;;;;;9.10;6.97;;;3.90;99.90;;;;;;5099602;28;20450;-63
2020/12/22 05:38:41;;;;;;;8.55;5.75;;;3.90;99.90;;;;;;5100506;28;20415;-62
2020/12/22 05:41:08;;;;;;;5.30;3.78;;;4.10;99.90;;;;;;5094961;28;20475;-64
2020/12/22 05:43:42;;;;;;;17.55;5.70;;;4.30;99.90;;;;;;5094967;28;20204;-62
2020/12/22 05:46:09;;;;;;;8.55;5.65;;;4.30;99.90;;;;;;5099983;28;20292;-62
2020/12/22 05:48:37;;;;;;;6.20;4.80;;;4.30;99.90;;;;;;5085561;28;20205;-63
2020/12/22 05:51:08;;;;;;;9.80;6.05;;;4.30;99.90;;;;;;5100504;28;20269;-67
2020/12/22 05:53:42;;;;;;;7.82;5.50;;;4.40;99.90;;;;;;5092954;28;20208;-62
2020/12/22 05:56:19;;;;;;;8.98;5.50;;;4.30;99.90;;;;;;5086633;28;20209;-63
2020/12/22 05:58:45;;;;;;;10.30;5.60;;;4.30;99.90;;;;;;5091970;28;20211;-63
2020/12/22 06:01:13;;;;;;;10.02;5.40;;;4.20;99.90;;;;;;5086542;28;20237;-63
2020/12/22 06:03:42;;;;;;;8.30;5.38;;;4.30;99.90;;;;;;5085876;28;20268;-65
2020/12/22 06:06:09;;;;;;;6.80;5.30;;;4.40;99.90;;;;;;5099704;28;20231;-63
2020/12/22 06:08:37;;;;;;;9.50;4.93;;;4.50;99.90;;;;;;5092667;28;20304;-63
2020/12/22 06:11:11;;;;;;;5.60;3.97;;;4.50;99.90;;;;;;5095735;28;20233;-64
2020/12/22 06:13:37;;;;;;;6.68;4.60;;;4.60;99.90;;;;;;5097453;28;20210;-63
2020/12/22 06:16:15;;;;;;;5.75;5.10;;;4.50;99.90;;;;;;5101341;28;20216;-63
2020/12/22 06:18:44;;;;;;;10.18;6.13;;;4.50;99.90;;;;;;5096964;28;20715;-64
2020/12/22 06:21:11;;;;;;;5.82;4.28;;;4.50;99.90;;;;;;5094539;28;20212;-63
2020/12/22 06:23:38;;;;;;;5.28;3.85;;;4.50;99.90;;;;;;5095212;28;20273;-63
2020/12/22 06:26:06;;;;;;;8.40;4.65;;;4.60;99.90;;;;;;5089764;28;20233;-63
2020/12/22 06:28:33;;;;;;;4.60;4.22;;;4.60;99.90;;;;;;5094804;28;20397;-65
2020/12/22 06:31:13;;;;;;;7.70;5.07;;;4.50;99.90;;;;;;5099615;28;20231;-62
2020/12/22 06:33:41;;;;;;;5.18;3.55;;;4.60;99.90;;;;;;5098172;28;20201;-62
2020/12/22 06:36:13;;;;;;;6.07;4.03;;;4.60;99.90;;;;;;5100029;28;20271;-61
2020/12/22 06:38:43;;;;;;;5.22;3.80;;;4.50;99.90;;;;;;5089729;28;20247;-62
2020/12/22 06:41:10;;;;;;;4.45;3.60;;;4.60;99.90;;;;;;5095930;28;20209;-62
2020/12/22 06:43:41;;;;;;;6.15;3.60;;;4.40;99.90;;;;;;5095109;28;20395;-63
2020/12/22 06:46:27;;;;;;;4.05;2.95;;;4.40;99.90;;;;;;5090701;28;20206;-63
2020/12/22 06:48:54;;;;;;;5.53;4.65;;;4.40;99.90;;;;;;5094363;28;20251;-62
2020/12/22 06:51:23;;;;;;;9.13;5.90;;;4.50;99.90;;;;;;5095638;28;20235;-62
2020/12/22 06:53:50;;;;;;;10.48;5.88;;;4.50;99.90;;;;;;5095362;28;20515;-62
2020/12/22 06:56:40;;;;;;;7.00;5.32;;;4.50;99.90;;;;;;5096447;28;20209;-63
2020/12/22 06:59:12;;;;;;;6.32;4.32;;;4.40;99.90;;;;;;5079144;28;20474;-64
2020/12/22 07:01:45;;;;;;;6.32;4.78;;;4.40;99.90;;;;;;5079918;28;20201;-64
2020/12/22 07:04:18;;;;;;;8.20;5.38;;;4.50;99.90;;;;;;5079445;28;20460;-63
2020/12/22 07:06:44;;;;;;;7.82;6.03;;;4.40;99.90;;;;;;5095038;28;20267;-64
2020/12/22 07:09:20;;;;;;;8.30;4.13;;;4.40;99.90;;;;;;5093252;28;20367;-64
2020/12/22 07:11:48;;;;;;;10.40;4.78;;;4.30;99.90;;;;;;5091188;28;20199;-63
2020/12/22 07:14:17;;;;;;;6.55;4.90;;;4.30;99.90;;;;;;5092859;28;20214;-63
2020/12/22 07:16:50;;;;;;;9.50;5.22;;;4.40;99.90;;;;;;5095580;28;20216;-63
2020/12/22 07:19:30;;;;;;;9.27;5.95;;;4.30;99.90;;;;;;5093698;28;20210;-64
2020/12/22 07:22:07;;;;;;;4.55;3.90;;;4.40;99.90;;;;;;5079498;28;20280;-64
2020/12/22 07:24:36;;;;;;;6.75;4.95;;;4.30;99.90;;;;;;5092460;28;20443;-63
2020/12/22 07:27:04;;;;;;;7.35;4.30;;;4.40;99.90;;;;;;5088476;28;20237;-64
2020/12/22 07:29:30;;;;;;;6.15;4.63;;;4.30;99.90;;;;;;5087817;28;20302;-63
2020/12/22 07:31:59;;;;;;;7.97;6.30;;;4.40;99.90;;;;;;5097565;28;20210;-64
2020/12/22 07:34:26;;;;;;;6.65;5.15;;;4.50;99.90;;;;;;5097707;28;20239;-64
2020/12/22 07:37:05;;;;;;;6.35;4.07;;;4.50;99.90;;;;;;5095340;28;20215;-64
2020/12/22 07:39:33;;;;;;;5.18;3.10;;;4.50;99.90;;;;;;5078591;28;20518;-64
2020/12/22 07:42:19;;;;;;;8.20;5.93;;;4.50;99.90;;;;;;5097766;28;20536;-63
2020/12/22 07:44:47;;;;;;;7.00;4.90;;;4.50;99.90;;;;;;5094065;28;20259;-64
2020/12/22 07:47:15;;;;;;;8.05;5.38;;;4.60;99.90;;;;;;5092883;28;20452;-62
2020/12/22 07:49:42;;;;;;;9.45;4.55;;;4.60;99.90;;;;;;5098512;28;20564;-65
2020/12/22 07:52:21;;;;;;;10.77;5.95;;;4.50;99.90;;;;;;5109266;28;20207;-64
2020/12/22 07:54:57;;;;;;;5.95;4.30;;;4.60;99.90;;;;;;5096582;28;20194;-65
2020/12/22 07:57:25;;;;;;;9.60;4.97;;;4.60;99.90;;;;;;5090875;28;20313;-64
2020/12/22 08:00:01;;;;;;;9.00;5.35;;;4.60;99.90;;;;;;5089649;28;20507;-63
2020/12/22 08:02:27;;;;;;;6.20;4.35;;;4.50;99.90;;;;;;5082073;28;20204;-65
2020/12/22 08:04:54;;;;;;;7.70;4.15;;;4.60;99.90;;;;;;5087059;28;20197;-66
2020/12/22 08:07:20;;;;;;;5.60;3.60;;;4.60;99.90;;;;;;5090160;28;20214;-65
2020/12/22 08:09:47;;;;;;;8.25;4.75;;;4.50;99.90;;;;;;5098005;28;20237;-64
2020/12/22 08:12:14;;;;;;;4.70;3.38;;;4.50;99.90;;;;;;5101406;28;20309;-64
2020/12/22 08:14:45;;;;;;;6.60;4.72;;;4.50;99.90;;;;;;5101523;28;20204;-65
2020/12/22 08:17:18;;;;;;;4.63;3.40;;;4.60;99.90;;;;;;5093095;28;20385;-64
2020/12/22 08:19:46;;;;;;;5.70;4.40;;;4.50;99.90;;;;;;5097248;28;20209;-64
2020/12/22 08:22:14;;;;;;;7.40;4.13;;;4.50;99.90;;;;;;5100124;28;20215;-65
2020/12/22 08:24:41;;;;;;;7.25;4.38;;;4.60;99.90;;;;;;5095652;28;20204;-63
2020/12/22 08:27:08;;;;;;;6.22;4.50;;;4.60;99.90;;;;;;5091917;28;20245;-62
2020/12/22 08:29:37;;;;;;;9.30;4.43;;;4.70;99.90;;;;;;5095897;28;20210;-63
2020/12/22 08:32:05;;;;;;;6.68;3.95;;;4.60;99.90;;;;;;5085104;28;20204;-63
2020/12/22 08:34:32;;;;;;;5.82;4.65;;;4.70;99.90;;;;;;5092192;28;20216;-63
2020/12/22 08:37:11;;;;;;;7.45;4.78;;;4.80;99.90;;;;;;5095671;28;20503;-65
2020/12/22 08:39:42;;;;;;;3.85;2.83;;;4.70;99.90;;;;;;5097223;28;20220;-64
2020/12/22 08:42:10;;;;;;;5.03;4.53;;;4.80;99.90;;;;;;5094468;28;20418;-65
2020/12/22 08:44:46;;;;;;;4.35;3.70;;;4.80;99.90;;;;;;5100796;28;20522;-65
2020/12/22 08:47:13;;;;;;;4.30;3.90;;;4.80;99.90;;;;;;5095643;28;20376;-64
2020/12/22 08:49:40;;;;;;;6.07;4.60;;;4.90;99.90;;;;;;5091289;28;20209;-63
2020/12/22 08:52:15;;;;;;;6.40;4.40;;;4.90;99.90;;;;;;5084535;28;20206;-64
2020/12/22 08:54:42;;;;;;;6.20;4.57;;;4.90;99.90;;;;;;5096102;28;20220;-64
2020/12/22 08:57:11;;;;;;;7.22;5.20;;;4.90;99.90;;;;;;5101153;28;20215;-64
2020/12/22 08:59:38;;;;;;;12.57;6.47;;;4.90;99.90;;;;;;5083430;28;20274;-64
2020/12/22 09:02:06;;;;;;;15.55;8.05;;;4.90;99.90;;;;;;5091000;28;20590;-65
2020/12/22 09:04:33;;;;;;;8.85;6.03;;;5.00;99.90;;;;;;5087594;28;20216;-65
2020/12/22 09:07:00;;;;;;;9.02;5.88;;;5.00;99.90;;;;;;5098314;28;20220;-64
2020/12/22 09:09:30;;;;;;;7.07;4.35;;;5.00;99.90;;;;;;5092402;28;20212;-64
2020/12/22 09:12:08;;;;;;;6.63;4.68;;;5.00;99.90;;;;;;5085982;28;20273;-64
2020/12/22 09:14:43;;;;;;;7.93;5.00;;;5.10;99.90;;;;;;5090983;28;20213;-64
2020/12/22 09:17:11;;;;;;;9.02;4.93;;;5.10;99.90;;;;;;5092043;28;20209;-63
2020/12/22 09:19:44;;;;;;;5.93;5.38;;;5.10;99.90;;;;;;5105842;28;20245;-64
2020/12/22 09:22:11;;;;;;;7.55;4.93;;;5.20;99.90;;;;;;5089450;28;20206;-64
2020/12/22 09:24:38;;;;;;;8.40;4.40;;;5.20;99.90;;;;;;5089664;28;20432;-64
2020/12/22 09:27:08;;;;;;;5.63;4.57;;;5.20;99.90;;;;;;5096289;28;20276;-64
2020/12/22 09:29:37;;;;;;;10.00;6.28;;;5.20;99.90;;;;;;5089367;28;20576;-65
2020/12/22 09:32:05;;;;;;;5.35;4.10;;;5.30;99.90;;;;;;5084021;28;20206;-64
2020/12/22 09:34:34;;;;;;;5.10;4.00;;;5.30;99.90;;;;;;5089617;28;20256;-64
2020/12/22 09:37:05;;;;;;;7.35;4.75;;;5.40;99.90;;;;;;5083373;28;20206;-67
2020/12/22 09:39:34;;;;;;;7.72;3.95;;;5.50;99.90;;;;;;5087061;28;20194;-64
2020/12/22 09:42:02;;;;;;;4.63;4.05;;;5.50;99.90;;;;;;5098328;28;20222;-66
2020/12/22 09:44:29;;;;;;;7.00;4.80;;;5.60;99.90;;;;;;5076530;28;20336;-65
2020/12/22 09:46:56;;;;;;;7.20;3.92;;;5.70;99.90;;;;;;5090417;28;20210;-65
2020/12/22 09:49:25;;;;;;;5.70;4.57;;;5.80;99.90;;;;;;5076597;28;20206;-66
2020/12/22 09:51:52;;;;;;;3.85;3.28;;;5.80;99.90;;;;;;5094845;28;20248;-66
2020/12/22 09:54:20;;;;;;;4.75;3.85;;;5.70;99.90;;;;;;5090085;28;20233;-66
2020/12/22 09:56:48;;;;;;;5.80;3.70;;;5.60;99.90;;;;;;5097167;28;20245;-65
2020/12/22 09:59:15;;;;;;;6.20;3.83;;;5.70;99.90;;;;;;5098030;28;20209;-64
2020/12/22 10:01:42;;;;;;;6.95;4.07;;;5.70;99.90;;;;;;5098097;28;20206;-64
2020/12/22 10:04:11;;;;;;;4.30;3.78;;;5.70;99.90;;;;;;5097008;28;20206;-63
2020/12/22 10:06:38;;;;;;;5.78;2.85;;;5.70;99.90;;;;;;5080252;28;20278;-64
2020/12/22 10:09:05;;;;;;;4.50;3.47;;;5.70;99.90;;;;;;5086881;28;20404;-64
2020/12/22 10:11:34;;;;;;;5.90;2.30;;;5.70;99.90;;;;;;5093098;28;20340;-64
2020/12/22 10:14:03;;;;;;;4.75;3.83;;;5.70;99.90;;;;;;5098280;28;20439;-64
2020/12/22 10:16:30;;;;;;;5.35;3.28;;;5.70;99.90;;;;;;5096078;28;20211;-63
2020/12/22 10:18:56;;;;;;;4.15;2.40;;;5.70;99.90;;;;;;5094044;28;20197;-67
2020/12/22 10:21:24;;;;;;;4.55;2.90;;;5.70;99.90;;;;;;5087651;28;20210;-64
2020/12/22 10:23:51;;;;;;;3.80;3.15;;;5.70;99.90;;;;;;5084742;28;20218;-65
2020/12/22 10:26:20;;;;;;;3.33;2.72;;;5.30;99.90;;;;;;5097313;28;20221;-65
2020/12/22 10:28:48;;;;;;;3.05;2.78;;;5.80;99.90;;;;;;5089721;28;20226;-65
2020/12/22 10:31:17;;;;;;;4.10;3.47;;;5.80;99.90;;;;;;5085223;28;20238;-65
2020/12/22 10:33:46;;;;;;;6.00;2.50;;;5.80;99.90;;;;;;5084287;28;20202;-64
2020/12/22 10:36:21;;;;;;;6.90;3.15;;;5.80;99.90;;;;;;5100084;28;20275;-65
2020/12/22 10:38:50;;;;;;;4.10;3.50;;;5.90;99.90;;;;;;5098830;28;20217;-64
2020/12/22 10:41:17;;;;;;;3.10;2.25;;;5.90;99.90;;;;;;5089817;28;20234;-64
2020/12/22 10:43:45;;;;;;;4.43;3.33;;;6.00;99.90;;;;;;5104506;28;20492;-64
2020/12/22 10:46:13;;;;;;;2.80;2.60;;;5.90;99.90;;;;;;5086682;28;20370;-64
2020/12/22 10:48:40;;;;;;;3.00;2.45;;;6.00;99.90;;;;;;5094446;28;20274;-64
2020/12/22 10:51:08;;;;;;;2.83;2.63;;;6.00;99.90;;;;;;5092296;28;20233;-65
2020/12/22 10:53:35;;;;;;;3.38;1.92;;;6.10;99.90;;;;;;5081513;28;20202;-64
2020/12/22 10:56:02;;;;;;;2.33;2.05;;;6.00;99.90;;;;;;5089518;28;20206;-65
2020/12/22 10:58:30;;;;;;;3.92;2.50;;;6.10;99.90;;;;;;5085862;28;20416;-66
2020/12/22 11:00:56;;;;;;;4.55;2.67;;;6.20;99.90;;;;;;5092199;28;20213;-65
2020/12/22 11:03:23;;;;;;;4.10;2.70;;;6.30;99.90;;;;;;5084564;28;20214;-64
2020/12/22 11:08:40;;;;;;;11.00;7.15;;;6.30;99.90;;;;;;5092695;28;20287;-65
2020/12/22 11:11:08;;;;;;;19.13;10.20;;;6.40;99.90;;;;;;5090884;28;20237;-66
2020/12/22 11:13:36;;;;;;;13.32;7.65;;;6.50;99.90;;;;;;5101351;28;20237;-65
2020/12/22 11:16:07;;;;;;;12.27;5.47;;;6.70;99.90;;;;;;5101261;28;20389;-65
2020/12/22 11:18:34;;;;;;;26.80;12.05;;;6.80;99.90;;;;;;5083075;28;20235;-66
2020/12/22 11:21:01;;;;;;;30.50;13.65;;;6.80;99.90;;;;;;5082807;28;20214;-66
2020/12/22 11:23:42;;;;;;;31.42;13.55;;;6.90;99.90;;;;;;5078023;28;20202;-68
2020/12/22 11:26:10;;;;;;;20.33;10.10;;;6.90;99.90;;;;;;5091369;28;20297;-66
2020/12/22 11:28:38;;;;;;;9.73;5.05;;;7.40;99.90;;;;;;5080224;28;20202;-66
2020/12/22 11:31:05;;;;;;;5.75;4.38;;;7.10;99.90;;;;;;5086932;28;20486;-66
2020/12/22 11:33:32;;;;;;;5.70;4.55;;;7.10;99.90;;;;;;5086027;28;20206;-66
2020/12/22 11:35:58;;;;;;;6.15;4.20;;;7.10;99.90;;;;;;5100296;28;20225;-65
2020/12/22 11:38:25;;;;;;;4.57;3.38;;;7.10;99.90;;;;;;5079388;28;20202;-66
2020/12/22 11:40:51;;;;;;;3.63;2.85;;;7.20;99.90;;;;;;5100183;28;20206;-66
2020/12/22 11:43:18;;;;;;;2.72;2.53;;;7.30;99.90;;;;;;5102343;28;20202;-66
2020/12/22 11:45:44;;;;;;;4.75;3.90;;;7.40;99.90;;;;;;5097753;28;20376;-66
2020/12/22 11:48:11;;;;;;;3.25;2.95;;;7.50;99.90;;;;;;5087820;28;20506;-66
2020/12/22 11:50:37;;;;;;;4.20;3.30;;;7.60;99.90;;;;;;5092781;28;20226;-67
2020/12/22 11:53:04;;;;;;;3.80;3.50;;;7.80;99.90;;;;;;5094497;28;20281;-67
2020/12/22 11:55:33;;;;;;;3.85;2.95;;;7.90;99.90;;;;;;5093232;28;20215;-67
2020/12/22 11:58:00;;;;;;;4.70;2.35;;;7.90;99.90;;;;;;5082846;28;20463;-68
2020/12/22 12:00:26;;;;;;;1.40;1.30;;;8.10;99.90;;;;;;5085797;28;20207;-67
2020/12/22 12:02:53;;;;;;;1.85;1.60;;;8.10;99.90;;;;;;5094863;28;20208;-67
2020/12/22 12:05:19;;;;;;;1.88;1.50;;;8.20;99.90;;;;;;5116435;28;20209;-68
2020/12/22 12:07:46;;;;;;;1.30;1.20;;;8.20;99.90;;;;;;5082016;27;20205;-68
2020/12/22 12:10:13;;;;;;;1.38;1.05;;;8.30;99.90;;;;;;5091424;28;20228;-68
2020/12/22 12:12:40;;;;;;;2.17;1.23;;;8.70;99.90;;;;;;5084234;28;20271;-68
2020/12/22 12:15:06;;;;;;;2.13;1.77;;;8.30;99.90;;;;;;5085980;28;20453;-67
2020/12/22 12:17:33;;;;;;;1.40;1.30;;;8.40;99.90;;;;;;5091911;28;20210;-68
2020/12/22 12:19:59;;;;;;;1.98;1.35;;;8.40;99.90;;;;;;5096681;28;20217;-67
2020/12/22 12:22:26;;;;;;;3.88;1.30;;;8.40;99.90;;;;;;5082431;28;20207;-66
2020/12/22 12:24:52;;;;;;;1.08;0.98;;;8.40;99.90;;;;;;5094344;28;20206;-67
2020/12/22 12:27:19;;;;;;;1.98;1.77;;;8.40;99.90;;;;;;5090267;28;20215;-67
2020/12/22 12:29:46;;;;;;;1.00;1.00;;;8.40;99.90;;;;;;5087213;28;20207;-66
2020/12/22 12:32:12;;;;;;;2.00;1.20;;;8.50;99.90;;;;;;5086088;28;20228;-67
2020/12/22 12:34:39;;;;;;;2.45;1.30;;;8.50;99.90;;;;;;5098095;28;20226;-68
2020/12/22 12:37:06;;;;;;;0.98;0.85;;;8.50;99.90;;;;;;5105183;28;20222;-66
2020/12/22 12:39:33;;;;;;;1.85;1.05;;;8.50;99.90;;;;;;5104680;28;20219;-66
2020/12/22 12:42:00;;;;;;;2.95;1.35;;;8.60;99.90;;;;;;5088156;28;20612;-67
2020/12/22 12:44:31;;;;;;;1.42;1.10;;;8.60;99.90;;;;;;5076637;28;20414;-67
2020/12/22 12:47:02;;;;;;;2.35;1.45;;;8.60;99.90;;;;;;5082966;28;20212;-67
2020/12/22 12:49:30;;;;;;;2.25;2.15;;;8.60;99.90;;;;;;5089323;28;20272;-67
2020/12/22 12:51:56;;;;;;;1.80;1.70;;;8.60;99.90;;;;;;5091298;28;20234;-67
2020/12/22 12:54:23;;;;;;;2.50;1.77;;;8.70;99.90;;;;;;5091206;28;20210;-67
2020/12/22 12:56:49;;;;;;;1.88;1.52;;;8.80;99.90;;;;;;5094533;28;20223;-67
2020/12/22 12:59:16;;;;;;;2.13;1.05;;;8.80;99.90;;;;;;5089581;28;20195;-67